Time;durP1;ratioP1;P1;durP2;ratioP2;P2;SDS_P1;SDS_P2;PMS_P1;PMS_P2;Temp;Humidity;BMP_temperature;BMP_pressure;BME280_temperature;BME280_humidity;BME280_pressure;Samples;Min_cycle;Max_cycle;Signal;HPM_P1;HPM_P2
2022/05/11 00:01:15;;;;;;;15.40;10.47;;;17.10;99.30;;;;;;5033156;28;20941;-60
2022/05/11 00:03:44;;;;;;;11.00;9.63;;;17.00;99.20;;;;;;5033010;28;20536;-60
2022/05/11 00:06:11;;;;;;;13.10;10.63;;;17.00;99.20;;;;;;5033197;28;20441;-59
2022/05/11 00:08:38;;;;;;;13.30;10.90;;;17.00;99.10;;;;;;5032896;28;20443;-59
2022/05/11 00:11:05;;;;;;;11.40;10.20;;;17.00;98.90;;;;;;5033310;28;20445;-60
2022/05/11 00:13:33;;;;;;;12.07;10.20;;;17.00;98.70;;;;;;5033125;28;20453;-60
2022/05/11 00:16:00;;;;;;;11.27;10.17;;;17.00;98.50;;;;;;5033009;28;20975;-60
2022/05/11 00:18:27;;;;;;;15.40;10.30;;;17.10;98.30;;;;;;5032980;28;20460;-60
2022/05/11 00:20:56;;;;;;;12.87;11.57;;;17.00;98.10;;;;;;5033248;28;20449;-59
2022/05/11 00:23:23;;;;;;;13.77;10.73;;;17.10;98.00;;;;;;5032738;28;20791;-59
2022/05/11 00:25:50;;;;;;;12.13;10.73;;;17.10;97.90;;;;;;5035713;28;20469;-60
2022/05/11 00:28:17;;;;;;;14.70;10.97;;;17.10;97.80;;;;;;5037166;28;20460;-60
2022/05/11 00:30:45;;;;;;;13.23;11.10;;;17.10;97.80;;;;;;5037072;28;20448;-59
2022/05/11 00:33:13;;;;;;;12.20;10.80;;;17.10;97.80;;;;;;5036721;28;20502;-60
2022/05/11 00:35:41;;;;;;;14.90;12.20;;;17.10;97.90;;;;;;5036679;28;21047;-60
2022/05/11 00:38:11;;;;;;;13.20;11.90;;;17.10;98.10;;;;;;5036573;28;20452;-61
2022/05/11 00:40:41;;;;;;;12.27;10.60;;;17.00;98.20;;;;;;5036520;28;20456;-60
2022/05/11 00:43:09;;;;;;;10.63;9.50;;;17.10;98.40;;;;;;5036642;28;20453;-60
2022/05/11 00:45:38;;;;;;;12.70;10.07;;;17.00;98.50;;;;;;5036800;28;20465;-60
2022/05/11 00:50:49;;;;;;;11.90;10.70;;;17.10;98.50;;;;;;5036326;28;20436;-60
2022/05/11 00:53:18;;;;;;;12.80;11.10;;;17.10;98.70;;;;;;5036649;28;20451;-60
2022/05/11 00:55:50;;;;;;;12.23;10.90;;;17.10;98.90;;;;;;5035996;28;20480;-60
2022/05/11 00:58:22;;;;;;;12.90;11.57;;;17.00;99.10;;;;;;5037085;28;20429;-60
2022/05/11 01:00:49;;;;;;;13.40;10.80;;;17.00;99.40;;;;;;5036844;28;20425;-61
2022/05/11 01:03:20;;;;;;;13.17;11.57;;;17.00;99.70;;;;;;5036365;28;20466;-60
2022/05/11 01:05:48;;;;;;;10.67;9.57;;;17.00;99.90;;;;;;5035933;28;20488;-61
2022/05/11 01:08:19;;;;;;;12.03;10.87;;;17.00;99.90;;;;;;5036437;28;20450;-60
2022/05/11 01:10:47;;;;;;;14.03;11.40;;;17.00;99.90;;;;;;5036342;28;20468;-60
2022/05/11 01:13:16;;;;;;;11.13;10.10;;;17.00;99.90;;;;;;5036124;28;20437;-61
2022/05/11 01:15:46;;;;;;;11.73;10.63;;;16.90;99.90;;;;;;5036003;28;20510;-60
2022/05/11 01:18:14;;;;;;;12.70;10.30;;;16.90;99.90;;;;;;5035712;28;20440;-60
2022/05/11 01:20:41;;;;;;;10.83;9.73;;;16.80;99.90;;;;;;5035586;28;20488;-60
2022/05/11 01:23:16;;;;;;;14.60;12.20;;;16.80;99.90;;;;;;5035743;28;20838;-60
2022/05/11 01:25:45;;;;;;;15.20;11.27;;;16.80;99.90;;;;;;5035770;28;20467;-62
2022/05/11 01:28:14;;;;;;;13.70;12.27;;;16.80;99.90;;;;;;5035553;28;20948;-60
2022/05/11 01:30:42;;;;;;;17.57;12.07;;;16.80;99.90;;;;;;5035513;28;20929;-60
2022/05/11 01:33:13;;;;;;;15.30;12.77;;;16.80;99.90;;;;;;5035358;28;20445;-60
2022/05/11 01:35:48;;;;;;;14.60;13.07;;;16.80;99.90;;;;;;5035264;28;20488;-60
2022/05/11 01:38:33;;;;;;;13.50;12.00;;;16.80;99.90;;;;;;5034800;28;20912;-61
2022/05/11 01:41:02;;;;;;;11.73;10.63;;;16.70;99.90;;;;;;5035307;28;20909;-60
2022/05/11 01:43:31;;;;;;;14.47;12.10;;;16.70;99.90;;;;;;5035270;28;20497;-60
2022/05/11 01:45:59;;;;;;;14.47;11.47;;;16.70;99.90;;;;;;5035494;28;20448;-60
2022/05/11 01:48:27;;;;;;;12.70;10.90;;;16.70;99.90;;;;;;5035931;28;20452;-61
2022/05/11 01:50:54;;;;;;;14.13;11.63;;;16.70;99.90;;;;;;5035599;28;20453;-60
2022/05/11 01:53:22;;;;;;;12.47;10.63;;;16.70;99.90;;;;;;5035159;28;20445;-60
2022/05/11 01:55:49;;;;;;;13.67;9.67;;;16.70;99.90;;;;;;5035359;28;20491;-61
2022/05/11 01:58:18;;;;;;;12.10;10.23;;;16.70;99.90;;;;;;5035345;28;20441;-61
2022/05/11 02:00:47;;;;;;;12.20;10.37;;;16.70;99.90;;;;;;5035238;28;20452;-62
2022/05/11 02:03:17;;;;;;;9.70;8.73;;;16.70;99.90;;;;;;5034823;28;20452;-61
2022/05/11 02:08:29;;;;;;;10.57;9.47;;;16.70;99.90;;;;;;5034956;28;20437;-61
2022/05/11 02:10:56;;;;;;;11.97;10.00;;;16.80;99.90;;;;;;5034815;28;20937;-60
2022/05/11 02:13:24;;;;;;;10.47;9.47;;;16.80;99.90;;;;;;5035146;28;20455;-61
2022/05/11 02:15:51;;;;;;;11.40;9.70;;;16.80;99.90;;;;;;5034500;28;20484;-61
2022/05/11 02:18:19;;;;;;;9.67;8.67;;;16.80;99.90;;;;;;5034796;28;20441;-59
2022/05/11 02:20:46;;;;;;;11.80;9.27;;;16.80;99.60;;;;;;5035125;28;20472;-59
2022/05/11 02:23:15;;;;;;;11.10;9.97;;;16.80;99.20;;;;;;5034906;28;20451;-60
2022/05/11 02:25:44;;;;;;;11.70;9.73;;;16.80;99.00;;;;;;5034472;28;20497;-59
2022/05/11 02:28:12;;;;;;;10.57;9.57;;;16.80;98.90;;;;;;5034813;28;20488;-59
2022/05/11 02:30:42;;;;;;;10.97;9.87;;;16.80;98.70;;;;;;5034472;28;20494;-61
2022/05/11 02:33:10;;;;;;;11.33;10.23;;;16.80;98.80;;;;;;5035933;28;20452;-62
2022/05/11 02:35:37;;;;;;;11.87;10.67;;;16.80;98.80;;;;;;5036634;28;20481;-61
2022/05/11 02:38:07;;;;;;;12.30;11.03;;;16.80;98.80;;;;;;5034732;28;20453;-61
2022/05/11 02:40:38;;;;;;;15.60;12.27;;;16.80;98.80;;;;;;5034466;28;20449;-61
2022/05/11 02:43:06;;;;;;;14.50;11.07;;;16.80;98.80;;;;;;5034261;28;20437;-60
2022/05/11 02:45:34;;;;;;;15.60;11.10;;;16.80;98.80;;;;;;5034469;28;20468;-60
2022/05/11 02:48:04;;;;;;;12.10;10.90;;;16.70;98.80;;;;;;5033319;28;20877;-60
2022/05/11 02:50:33;;;;;;;12.63;11.33;;;16.70;98.90;;;;;;5033961;28;20964;-60
2022/05/11 02:53:02;;;;;;;13.80;10.80;;;16.70;99.10;;;;;;5034432;28;20445;-61
2022/05/11 02:55:30;;;;;;;13.70;11.93;;;16.70;99.40;;;;;;5034293;28;20485;-60
2022/05/11 02:57:57;;;;;;;11.60;10.40;;;16.70;99.50;;;;;;5034229;28;20460;-60
2022/05/11 03:00:24;;;;;;;10.97;9.60;;;16.70;99.80;;;;;;5033985;28;20448;-60
2022/05/11 03:02:51;;;;;;;13.80;10.20;;;16.70;99.90;;;;;;5033827;28;20455;-60
2022/05/11 03:05:20;;;;;;;10.90;9.47;;;16.70;99.90;;;;;;5033518;28;20483;-60
2022/05/11 03:07:47;;;;;;;10.33;9.30;;;16.70;99.90;;;;;;5033966;28;20453;-60
2022/05/11 03:10:14;;;;;;;10.57;9.53;;;16.70;99.90;;;;;;5033538;28;20453;-60
2022/05/11 03:12:41;;;;;;;12.87;9.90;;;16.60;99.80;;;;;;5033764;28;20448;-60
2022/05/11 03:15:10;;;;;;;8.63;7.83;;;16.60;99.80;;;;;;5033356;28;20477;-60
2022/05/11 03:17:37;;;;;;;11.40;8.80;;;16.60;99.80;;;;;;5033427;28;20460;-61
2022/05/11 03:20:06;;;;;;;10.47;9.40;;;16.60;99.90;;;;;;5033354;28;20448;-61
2022/05/11 03:22:35;;;;;;;10.53;9.23;;;16.60;99.90;;;;;;5033465;28;20460;-61
2022/05/11 03:25:02;;;;;;;9.80;8.90;;;16.60;99.90;;;;;;5033609;28;20464;-61
2022/05/11 03:27:29;;;;;;;10.50;9.40;;;16.50;99.90;;;;;;5033205;28;20451;-60
2022/05/11 03:29:56;;;;;;;10.60;9.50;;;16.50;99.90;;;;;;5032913;28;20448;-60
2022/05/11 03:35:10;;;;;;;14.40;10.53;;;16.40;99.90;;;;;;5033405;28;20484;-60
2022/05/11 03:37:39;;;;;;;12.80;11.50;;;16.40;99.90;;;;;;5033624;28;20448;-60
2022/05/11 03:40:08;;;;;;;12.20;11.10;;;16.40;99.90;;;;;;5033492;28;20456;-60
2022/05/11 03:42:37;;;;;;;13.27;11.97;;;16.40;99.90;;;;;;5033235;28;20445;-59
2022/05/11 03:45:08;;;;;;;12.00;10.80;;;16.40;99.90;;;;;;5033039;28;20544;-59
2022/05/11 03:47:35;;;;;;;13.17;11.97;;;16.30;99.90;;;;;;5033812;28;20452;-59
2022/05/11 03:50:02;;;;;;;13.67;12.37;;;16.30;99.90;;;;;;5033528;28;20452;-59
2022/05/11 03:52:29;;;;;;;18.80;12.63;;;16.30;99.90;;;;;;5033256;28;20460;-60
2022/05/11 03:54:58;;;;;;;13.90;12.50;;;16.30;99.90;;;;;;5032829;28;20481;-59
2022/05/11 03:57:25;;;;;;;16.30;12.80;;;16.30;99.90;;;;;;5033104;28;20518;-60
2022/05/11 03:59:52;;;;;;;13.57;12.27;;;16.30;99.90;;;;;;5032309;28;20455;-60
2022/05/11 04:02:19;;;;;;;14.40;11.77;;;16.30;99.90;;;;;;5032596;28;20451;-59
2022/05/11 04:04:46;;;;;;;13.87;12.37;;;16.30;99.90;;;;;;5032700;28;20491;-59
2022/05/11 04:09:44;;;;;;;13.70;11.90;;;16.30;99.90;;;;;;5090971;27;20595;-59
2022/05/11 04:12:11;;;;;;;13.70;12.30;;;16.30;99.90;;;;;;5090318;28;20454;-59
2022/05/11 04:14:38;;;;;;;14.20;12.70;;;16.30;99.90;;;;;;5089994;28;20476;-59
2022/05/11 04:17:05;;;;;;;13.43;11.80;;;16.40;99.90;;;;;;5090491;28;20470;-59
2022/05/11 04:19:32;;;;;;;14.17;12.37;;;16.40;99.90;;;;;;5090820;28;20443;-60
2022/05/11 04:21:59;;;;;;;14.70;12.37;;;16.40;99.90;;;;;;5090928;28;20453;-60
2022/05/11 04:24:27;;;;;;;12.70;11.50;;;16.40;99.90;;;;;;5090378;28;20473;-60
2022/05/11 04:26:55;;;;;;;13.33;12.03;;;16.40;99.90;;;;;;5090939;28;20453;-60
2022/05/11 04:29:23;;;;;;;14.20;11.30;;;16.40;99.90;;;;;;5091005;28;20547;-60
2022/05/11 04:31:54;;;;;;;12.77;11.43;;;16.50;99.90;;;;;;5090338;28;20899;-60
2022/05/11 04:34:21;;;;;;;12.33;10.90;;;16.50;99.90;;;;;;5090620;28;20864;-60
2022/05/11 04:36:48;;;;;;;12.27;11.00;;;16.50;99.90;;;;;;5090446;28;20442;-61
2022/05/11 04:39:15;;;;;;;14.13;10.60;;;16.60;99.90;;;;;;5089836;28;20958;-60
2022/05/11 04:41:43;;;;;;;12.67;11.43;;;16.60;99.90;;;;;;5090184;28;20453;-59
2022/05/11 04:44:11;;;;;;;12.93;11.57;;;16.60;99.90;;;;;;5089777;28;20466;-60
2022/05/11 04:46:39;;;;;;;12.43;10.43;;;16.70;99.90;;;;;;5089968;28;20466;-60
2022/05/11 04:49:20;;;;;;;15.70;11.63;;;16.70;99.90;;;;;;5089584;28;20466;-61
2022/05/11 04:51:49;;;;;;;15.10;11.90;;;16.80;99.90;;;;;;5089993;28;20430;-60
2022/05/11 04:54:18;;;;;;;14.83;12.17;;;16.80;99.90;;;;;;5089343;28;20962;-61
2022/05/11 04:56:45;;;;;;;13.70;11.57;;;16.80;99.90;;;;;;5089416;28;20438;-60
2022/05/11 04:59:14;;;;;;;12.37;10.80;;;16.90;99.90;;;;;;5089390;28;20445;-60
2022/05/11 05:01:42;;;;;;;12.67;11.20;;;16.90;99.90;;;;;;5089473;28;20523;-60
2022/05/11 05:04:09;;;;;;;12.30;10.40;;;16.90;99.90;;;;;;5089068;28;20466;-60
2022/05/11 05:06:36;;;;;;;13.67;10.70;;;16.90;99.90;;;;;;5091423;28;20442;-60
2022/05/11 05:09:05;;;;;;;13.10;11.27;;;17.00;99.90;;;;;;5089196;28;20986;-61
2022/05/11 05:11:33;;;;;;;13.47;10.60;;;17.00;99.90;;;;;;5089415;28;20446;-60
2022/05/11 05:14:01;;;;;;;12.30;10.40;;;17.00;99.90;;;;;;5089447;28;20462;-60
2022/05/11 05:16:29;;;;;;;13.20;11.47;;;17.10;99.90;;;;;;5089339;28;20446;-57
2022/05/11 05:18:56;;;;;;;12.57;11.27;;;17.20;99.90;;;;;;5088089;28;20438;-60
2022/05/11 05:21:23;;;;;;;11.13;9.90;;;17.20;99.90;;;;;;5075272;28;20446;-60
2022/05/11 05:23:50;;;;;;;12.73;9.80;;;17.30;99.90;;;;;;5075577;28;20450;-60
2022/05/11 05:26:17;;;;;;;11.33;9.70;;;17.40;99.90;;;;;;5075596;28;20450;-60
2022/05/11 05:31:31;;;;;;;11.67;10.57;;;17.50;99.30;;;;;;5075393;28;20465;-59
2022/05/11 05:33:59;;;;;;;12.17;10.93;;;17.70;98.80;;;;;;5075280;28;20489;-60
2022/05/11 05:36:27;;;;;;;11.40;10.20;;;17.70;98.40;;;;;;5075042;28;20993;-60
2022/05/11 05:38:54;;;;;;;11.20;10.00;;;17.80;98.10;;;;;;5074960;28;20475;-61
2022/05/11 05:41:22;;;;;;;11.27;10.17;;;17.90;97.80;;;;;;5075233;28;20447;-61
2022/05/11 05:43:49;;;;;;;11.23;10.13;;;18.00;97.40;;;;;;5074721;28;20454;-61
2022/05/11 05:46:17;;;;;;;12.33;11.20;;;18.10;97.00;;;;;;5073204;28;20447;-60
2022/05/11 05:48:46;;;;;;;12.13;10.87;;;18.20;96.60;;;;;;5074257;28;21002;-59
2022/05/11 05:51:15;;;;;;;10.83;9.83;;;18.30;96.10;;;;;;5074618;28;20997;-60
2022/05/11 05:53:43;;;;;;;17.37;10.87;;;18.40;95.50;;;;;;5074907;28;20448;-60
2022/05/11 05:56:11;;;;;;;14.03;10.40;;;18.50;95.10;;;;;;5073961;28;20447;-58
2022/05/11 05:58:38;;;;;;;11.30;9.90;;;18.50;94.70;;;;;;5074503;28;20943;-59
2022/05/11 06:01:06;;;;;;;12.27;11.07;;;18.60;94.40;;;;;;5073989;28;20454;-61
2022/05/11 06:03:35;;;;;;;13.53;11.17;;;18.70;94.00;;;;;;5073422;28;20996;-60
2022/05/11 06:06:04;;;;;;;10.50;9.40;;;18.70;93.60;;;;;;5074861;28;20501;-61
2022/05/11 06:08:31;;;;;;;11.27;9.10;;;18.80;93.10;;;;;;5074673;28;20482;-61
2022/05/11 06:10:58;;;;;;;12.73;10.13;;;19.00;92.60;;;;;;5074644;28;20451;-61
2022/05/11 06:13:26;;;;;;;10.60;9.50;;;19.00;92.10;;;;;;5073396;28;20454;-60
2022/05/11 06:15:55;;;;;;;10.93;9.13;;;19.10;91.70;;;;;;5074274;28;20550;-63
2022/05/11 06:18:23;;;;;;;10.93;9.83;;;19.20;91.30;;;;;;5074631;28;20447;-61
2022/05/11 06:20:51;;;;;;;13.20;10.53;;;19.30;90.90;;;;;;5073079;28;20488;-61
2022/05/11 06:23:20;;;;;;;12.20;10.90;;;19.40;90.50;;;;;;5073436;28;20447;-61
2022/05/11 06:25:49;;;;;;;10.87;9.83;;;19.40;90.20;;;;;;5073863;28;20985;-61
2022/05/11 06:28:16;;;;;;;13.67;9.77;;;19.50;89.90;;;;;;5073780;28;20812;-61
2022/05/11 06:30:43;;;;;;;11.60;10.50;;;19.50;89.30;;;;;;5073184;28;20443;-61
2022/05/11 06:33:10;;;;;;;12.53;10.27;;;19.50;88.90;;;;;;5073189;28;20470;-61
2022/05/11 06:35:37;;;;;;;10.50;9.57;;;19.50;88.60;;;;;;5073553;28;20459;-62
2022/05/11 06:38:06;;;;;;;10.90;9.90;;;19.60;88.00;;;;;;5073971;28;20812;-60
2022/05/11 06:40:35;;;;;;;11.27;9.17;;;19.70;87.00;;;;;;5073088;28;20452;-59
2022/05/11 06:43:03;;;;;;;10.70;9.17;;;19.70;86.20;;;;;;5072699;28;20458;-61
2022/05/11 06:45:30;;;;;;;10.87;9.97;;;19.70;85.50;;;;;;5073810;28;20471;-60
2022/05/11 06:47:57;;;;;;;11.63;10.20;;;19.70;85.30;;;;;;5073747;28;20450;-59
2022/05/11 06:50:26;;;;;;;10.30;8.93;;;19.60;85.30;;;;;;5073009;28;20487;-60
2022/05/11 06:52:53;;;;;;;9.87;8.97;;;19.60;85.40;;;;;;5073448;28;20468;-61
2022/05/11 07:00:50;;;;;;;10.07;9.17;;;19.70;85.50;;;;;;5073067;28;20545;-60
2022/05/11 07:03:18;;;;;;;11.03;10.00;;;19.90;85.30;;;;;;5072572;28;20804;-61
2022/05/11 07:05:47;;;;;;;11.93;10.60;;;20.10;84.20;;;;;;5073386;28;20486;-60
2022/05/11 07:08:14;;;;;;;15.97;10.00;;;20.50;82.70;;;;;;5073124;28;20467;-59
2022/05/11 07:10:43;;;;;;;11.87;10.13;;;20.90;80.70;;;;;;5073163;28;20443;-62
2022/05/11 07:13:11;;;;;;;10.37;8.87;;;21.30;78.60;;;;;;5072231;28;20451;-59
2022/05/11 07:15:39;;;;;;;12.37;10.23;;;21.60;76.70;;;;;;5072906;28;20463;-60
2022/05/11 07:18:07;;;;;;;12.27;10.03;;;21.90;75.30;;;;;;5073465;28;20458;-60
2022/05/11 07:20:37;;;;;;;10.57;9.47;;;22.00;74.10;;;;;;5072303;28;20814;-61
2022/05/11 07:23:06;;;;;;;10.10;9.20;;;22.10;73.20;;;;;;5072462;28;20443;-61
2022/05/11 07:25:34;;;;;;;9.43;8.53;;;22.20;72.30;;;;;;5073282;28;20471;-61
2022/05/11 07:28:03;;;;;;;12.73;9.67;;;22.30;71.10;;;;;;5073410;28;20534;-59
2022/05/11 07:30:35;;;;;;;10.03;8.93;;;22.50;70.00;;;;;;5073005;28;20482;-59
2022/05/11 07:33:02;;;;;;;9.80;8.80;;;22.70;68.50;;;;;;5072487;28;20785;-60
2022/05/11 07:35:30;;;;;;;9.80;8.80;;;22.90;67.20;;;;;;5073010;28;20516;-60
2022/05/11 07:37:59;;;;;;;10.00;9.07;;;22.90;65.90;;;;;;5072953;28;20451;-60
2022/05/11 07:40:27;;;;;;;10.27;8.90;;;22.90;65.10;;;;;;5072603;28;21003;-60
2022/05/11 07:42:55;;;;;;;9.03;8.10;;;22.90;64.80;;;;;;5071556;28;20452;-61
2022/05/11 07:45:23;;;;;;;11.73;8.43;;;22.90;64.40;;;;;;5072458;28;20470;-60
2022/05/11 07:47:51;;;;;;;11.20;8.50;;;23.00;63.90;;;;;;5072913;28;20457;-60
2022/05/11 07:50:18;;;;;;;9.57;8.23;;;23.00;63.50;;;;;;5071956;28;21006;-62
2022/05/11 07:52:47;;;;;;;9.47;8.60;;;22.90;63.00;;;;;;5072085;28;20459;-62
2022/05/11 07:55:16;;;;;;;10.30;8.70;;;22.80;62.90;;;;;;5072674;28;20557;-60
2022/05/11 08:00:28;;;;;;;9.10;8.27;;;23.10;62.20;;;;;;5071455;28;20431;-61
2022/05/11 08:02:56;;;;;;;12.60;8.10;;;23.40;61.30;;;;;;5072565;28;20442;-60
2022/05/11 08:05:24;;;;;;;9.87;8.50;;;23.70;60.30;;;;;;5072699;28;20478;-60
2022/05/11 08:07:54;;;;;;;9.53;8.10;;;24.00;59.40;;;;;;5072099;28;20463;-60
2022/05/11 08:10:23;;;;;;;11.93;9.07;;;24.20;59.00;;;;;;5072589;28;21052;-60
2022/05/11 08:12:52;;;;;;;10.80;9.20;;;24.40;57.70;;;;;;5072066;28;20450;-59
2022/05/11 08:15:21;;;;;;;8.40;7.70;;;24.50;57.20;;;;;;5071466;28;20470;-60
2022/05/11 08:17:49;;;;;;;10.00;7.73;;;24.50;57.10;;;;;;5071420;28;20485;-60
2022/05/11 08:20:20;;;;;;;11.10;7.63;;;24.70;56.80;;;;;;5072457;28;20440;-61
2022/05/11 08:22:48;;;;;;;10.50;7.50;;;24.90;56.10;;;;;;5072474;28;20442;-60
2022/05/11 08:25:19;;;;;;;9.73;7.03;;;24.90;55.40;;;;;;5072222;28;20478;-60
2022/05/11 08:27:46;;;;;;;11.80;7.30;;;25.00;54.70;;;;;;5071729;28;20451;-60
2022/05/11 08:35:45;;;;;;;7.00;6.30;;;25.00;53.40;;;;;;5071960;28;20481;-60
2022/05/11 08:38:13;;;;;;;13.30;7.00;;;25.10;52.80;;;;;;5071351;28;20452;-60
2022/05/11 08:40:47;;;;;;;7.97;6.83;;;25.20;52.40;;;;;;5072118;28;20565;-61
2022/05/11 08:43:17;;;;;;;6.70;6.00;;;25.20;51.80;;;;;;5072051;28;20437;-59
2022/05/11 08:45:51;;;;;;;7.40;6.03;;;25.20;51.80;;;;;;5065700;28;20503;-61
2022/05/11 08:48:29;;;;;;;6.57;5.97;;;25.10;51.50;;;;;;5072411;28;20434;-60
2022/05/11 08:50:57;;;;;;;8.00;6.87;;;25.00;51.50;;;;;;5073589;28;20561;-60
2022/05/11 08:53:34;;;;;;;6.93;6.23;;;24.90;51.70;;;;;;5072072;28;21001;-60
2022/05/11 08:56:07;;;;;;;8.60;7.40;;;24.90;51.70;;;;;;5075744;28;20458;-60
2022/05/11 08:58:39;;;;;;;8.50;7.60;;;25.00;51.60;;;;;;5076759;28;20439;-60
2022/05/11 09:01:15;;;;;;;6.70;6.00;;;25.10;51.30;;;;;;5074985;28;20518;-61
2022/05/11 09:03:44;;;;;;;7.60;7.00;;;24.90;51.20;;;;;;5076488;28;20442;-60
2022/05/11 09:06:18;;;;;;;7.70;6.90;;;24.80;51.30;;;;;;5076358;28;20457;-60
2022/05/11 09:08:46;;;;;;;6.90;5.30;;;24.80;51.50;;;;;;5075983;28;20464;-61
2022/05/11 09:11:17;;;;;;;5.60;5.10;;;24.80;51.20;;;;;;5075554;28;20814;-60
2022/05/11 09:13:44;;;;;;;6.20;5.60;;;24.90;50.30;;;;;;5076363;28;20439;-60
2022/05/11 09:16:22;;;;;;;7.27;6.43;;;24.90;49.50;;;;;;5076355;28;20811;-60
2022/05/11 09:18:49;;;;;;;6.00;5.50;;;25.00;48.90;;;;;;5075211;28;20743;-61
2022/05/11 09:21:29;;;;;;;6.73;6.13;;;25.10;48.70;;;;;;5074949;28;20447;-60
2022/05/11 09:24:09;;;;;;;7.57;5.70;;;25.10;48.50;;;;;;5075767;28;20467;-60
2022/05/11 09:26:39;;;;;;;9.30;6.40;;;25.30;48.40;;;;;;5075731;28;20427;-61
2022/05/11 09:29:19;;;;;;;7.22;6.05;;;25.20;48.20;;;;;;5073005;28;20841;-58
2022/05/11 09:31:47;;;;;;;8.53;6.57;;;25.20;48.40;;;;;;5075011;28;20655;-62
2022/05/11 09:34:23;;;;;;;6.40;5.80;;;25.30;48.40;;;;;;5074883;28;20487;-59
2022/05/11 09:36:58;;;;;;;6.33;5.80;;;25.50;48.40;;;;;;5073944;28;20439;-61
2022/05/11 09:39:27;;;;;;;6.40;5.60;;;25.60;48.10;;;;;;5075353;28;20422;-62
2022/05/11 09:42:01;;;;;;;8.13;5.90;;;25.70;48.00;;;;;;5074777;28;20451;-61
2022/05/11 09:44:42;;;;;;;7.40;6.70;;;25.80;47.70;;;;;;5075604;28;20497;-59
2022/05/11 09:47:25;;;;;;;6.27;5.73;;;25.80;47.60;;;;;;5074796;28;20488;-57
2022/05/11 09:49:52;;;;;;;9.00;5.70;;;25.70;47.20;;;;;;5073894;28;20599;-59
2022/05/11 09:52:32;;;;;;;7.27;5.93;;;25.60;47.20;;;;;;5074647;28;20820;-59
2022/05/11 09:55:01;;;;;;;5.47;5.00;;;25.50;46.60;;;;;;5074727;28;20463;-58
2022/05/11 09:57:29;;;;;;;5.60;4.77;;;25.60;46.30;;;;;;5075105;28;20458;-57
2022/05/11 10:00:17;;;;;;;7.00;4.80;;;25.60;45.60;;;;;;5074302;28;20443;-59
2022/05/11 10:02:47;;;;;;;10.43;5.20;;;25.70;45.50;;;;;;5073326;28;20747;-61
2022/05/11 10:05:17;;;;;;;8.20;4.70;;;25.80;45.10;;;;;;5073592;28;20474;-60
2022/05/11 10:07:49;;;;;;;6.30;5.13;;;25.90;44.80;;;;;;5074195;28;20524;-60
2022/05/11 10:10:27;;;;;;;5.70;5.07;;;26.10;44.60;;;;;;5074362;28;20487;-59
2022/05/11 10:12:57;;;;;;;7.10;4.40;;;26.10;43.90;;;;;;5073496;28;20427;-60
2022/05/11 10:24:11;;;;;;;5.00;4.60;;;26.20;43.70;;;;;;5073981;28;20446;-58
2022/05/11 10:26:47;;;;;;;7.33;4.30;;;26.30;43.40;;;;;;5072795;28;20435;-57
2022/05/11 10:29:23;;;;;;;4.90;4.50;;;26.40;43.10;;;;;;5073289;28;20431;-59
2022/05/11 10:32:00;;;;;;;5.53;5.03;;;26.50;42.80;;;;;;5073698;28;20435;-59
2022/05/11 10:34:36;;;;;;;5.23;4.30;;;26.70;42.40;;;;;;5073924;28;20459;-57
2022/05/11 10:37:09;;;;;;;5.17;4.00;;;27.00;41.90;;;;;;5072644;28;20461;-58
2022/05/11 10:39:54;;;;;;;6.70;4.63;;;27.00;41.40;;;;;;5073590;28;20424;-58
2022/05/11 10:42:32;;;;;;;5.63;3.73;;;27.10;40.80;;;;;;5074034;28;20450;-57
2022/05/11 10:45:12;;;;;;;5.30;3.97;;;27.20;39.50;;;;;;5072641;28;20457;-57
2022/05/11 10:48:00;;;;;;;9.00;4.00;;;27.20;40.00;;;;;;5073615;28;20188;-57
2022/05/11 10:50:40;;;;;;;6.10;4.30;;;27.20;39.60;;;;;;5073395;28;20996;-58
2022/05/11 10:53:25;;;;;;;5.93;4.43;;;27.10;39.50;;;;;;5072365;28;20439;-58
2022/05/11 10:56:09;;;;;;;5.50;4.57;;;27.00;39.00;;;;;;5073143;28;20962;-58
2022/05/11 10:58:54;;;;;;;7.97;4.63;;;27.00;39.00;;;;;;5073286;28;20423;-58
2022/05/11 11:01:22;;;;;;;7.00;3.90;;;27.00;39.20;;;;;;5072452;28;20431;-57
2022/05/11 11:04:22;;;;;;;14.13;5.00;;;27.10;39.10;;;;;;5072995;28;20963;-59
2022/05/11 11:07:20;;;;;;;4.80;4.40;;;27.20;38.80;;;;;;5047798;28;20813;-58
2022/05/11 11:10:12;;;;;;;5.43;4.10;;;27.20;38.70;;;;;;5074010;28;20463;-59
2022/05/11 11:13:00;;;;;;;4.50;4.07;;;27.10;38.00;;;;;;5072768;28;20455;-57
2022/05/11 11:15:31;;;;;;;4.67;4.27;;;26.90;37.70;;;;;;5072219;28;20475;-58
2022/05/11 11:18:00;;;;;;;5.43;3.80;;;26.70;37.90;;;;;;5071795;28;20439;-57
2022/05/11 11:20:28;;;;;;;9.87;4.90;;;26.60;38.40;;;;;;5072515;28;20545;-57
2022/05/11 11:23:07;;;;;;;4.53;4.13;;;26.60;38.70;;;;;;5071878;28;20447;-56
2022/05/11 11:25:52;;;;;;;7.20;4.50;;;26.70;38.90;;;;;;5072245;28;20502;-57
2022/05/11 11:28:21;;;;;;;5.03;4.20;;;26.70;38.50;;;;;;5072784;28;20842;-57
2022/05/11 11:31:16;;;;;;;4.70;4.30;;;26.40;38.80;;;;;;5072642;28;20528;-57
2022/05/11 11:34:12;;;;;;;4.53;4.13;;;26.20;39.50;;;;;;5075577;28;20447;-60
2022/05/11 11:36:41;;;;;;;5.33;4.50;;;26.20;39.40;;;;;;5074362;28;20419;-60
2022/05/11 11:39:11;;;;;;;4.93;4.30;;;26.20;39.60;;;;;;5072544;28;20477;-61
2022/05/11 11:42:04;;;;;;;4.87;4.10;;;26.30;39.80;;;;;;5072673;28;20527;-60
2022/05/11 11:44:39;;;;;;;7.40;4.07;;;26.50;39.80;;;;;;5072194;28;20471;-60
2022/05/11 11:47:35;;;;;;;5.10;4.20;;;26.80;39.10;;;;;;5072476;28;20427;-60
2022/05/11 11:50:03;;;;;;;4.83;4.33;;;27.10;38.70;;;;;;5065495;28;20970;-59
2022/05/11 11:52:36;;;;;;;4.97;4.57;;;27.40;38.60;;;;;;5072645;28;20450;-60
2022/05/11 11:55:08;;;;;;;5.50;4.97;;;27.70;38.40;;;;;;5072761;28;20490;-60
2022/05/11 11:57:35;;;;;;;4.43;4.03;;;27.70;38.40;;;;;;5073024;28;20431;-59
2022/05/11 12:00:27;;;;;;;8.07;3.63;;;27.80;38.40;;;;;;5072769;28;20467;-60
2022/05/11 12:02:56;;;;;;;8.63;4.97;;;28.10;37.80;;;;;;5072549;28;20451;-60
2022/05/11 12:05:29;;;;;;;6.27;3.73;;;28.50;37.10;;;;;;5073451;28;20474;-59
2022/05/11 12:16:24;;;;;;;4.87;4.37;;;29.60;35.40;;;;;;5072623;28;20411;-59
2022/05/11 12:18:52;;;;;;;7.83;4.90;;;29.60;35.30;;;;;;5071950;28;20443;-60
2022/05/11 12:21:28;;;;;;;7.97;4.40;;;29.60;35.00;;;;;;5071922;28;20440;-59
2022/05/11 12:23:57;;;;;;;6.90;4.00;;;29.80;34.60;;;;;;5072409;28;20808;-60
2022/05/11 12:26:26;;;;;;;7.37;4.10;;;29.60;34.40;;;;;;5072904;28;20553;-60
2022/05/11 12:29:54;;;;;;;6.13;4.00;;;29.30;35.10;;;;;;5072701;28;20439;-60
2022/05/11 12:31:54;;;;;;;4.87;3.90;;;29.00;35.50;;;;;;5076083;28;20570;-60
2022/05/11 12:34:23;;;;;;;5.80;3.60;;;28.40;36.10;;;;;;5076977;28;20494;-60
2022/05/11 12:36:53;;;;;;;4.40;3.90;;;27.90;36.80;;;;;;5076242;28;20494;-59
2022/05/11 12:39:30;;;;;;;4.33;3.60;;;27.70;37.10;;;;;;5076043;28;20867;-59
2022/05/11 12:41:57;;;;;;;5.30;3.57;;;27.60;37.50;;;;;;5076107;28;20434;-58
2022/05/11 12:44:29;;;;;;;9.50;4.50;;;27.30;38.10;;;;;;5075827;28;20989;-59
2022/05/11 12:47:01;;;;;;;3.93;3.60;;;27.20;38.40;;;;;;5076453;28;20482;-58
2022/05/11 12:49:29;;;;;;;7.63;3.87;;;27.20;38.50;;;;;;5076218;28;20934;-58
2022/05/11 12:52:01;;;;;;;7.70;4.00;;;27.30;38.40;;;;;;5076010;28;20478;-59
2022/05/11 12:54:31;;;;;;;4.27;3.93;;;27.40;38.00;;;;;;5075938;28;20761;-58
2022/05/11 12:57:00;;;;;;;7.00;4.27;;;27.50;37.60;;;;;;5075638;28;20598;-59
2022/05/11 12:59:32;;;;;;;6.87;3.50;;;27.30;37.60;;;;;;5075940;28;20446;-58
2022/05/11 13:02:19;;;;;;;6.47;3.70;;;27.20;37.90;;;;;;5077712;28;20420;-59
2022/05/11 13:04:51;;;;;;;4.87;4.07;;;27.10;37.90;;;;;;5077620;28;20462;-59
2022/05/11 13:07:21;;;;;;;11.63;3.93;;;27.10;38.00;;;;;;5076993;28;20466;-59
2022/05/11 13:09:52;;;;;;;4.63;4.03;;;27.20;37.70;;;;;;5076617;28;20423;-59
2022/05/11 13:12:20;;;;;;;4.63;4.13;;;27.30;38.00;;;;;;5076710;28;20466;-59
2022/05/11 13:14:50;;;;;;;6.10;3.80;;;27.40;38.10;;;;;;5076864;28;20803;-59
2022/05/11 13:17:26;;;;;;;6.40;4.20;;;27.50;38.00;;;;;;5077135;28;20449;-59
2022/05/11 13:19:56;;;;;;;7.00;3.30;;;27.40;38.00;;;;;;5076986;28;20427;-58
2022/05/11 13:22:25;;;;;;;5.90;2.73;;;27.40;37.90;;;;;;5076957;28;20445;-58
2022/05/11 13:24:54;;;;;;;5.80;3.17;;;27.40;37.70;;;;;;5077124;28;20498;-58
2022/05/11 13:27:30;;;;;;;6.03;3.60;;;27.30;37.30;;;;;;5076765;28;20455;-58
2022/05/11 13:30:10;;;;;;;2.73;2.30;;;27.30;37.30;;;;;;5075920;28;20443;-58
2022/05/11 13:32:41;;;;;;;5.60;3.20;;;27.40;36.80;;;;;;5075995;28;20450;-58
2022/05/11 13:35:23;;;;;;;5.20;3.40;;;27.40;35.90;;;;;;5075391;28;20467;-59
2022/05/11 13:38:18;;;;;;;7.20;3.30;;;27.50;35.30;;;;;;5075652;28;20597;-58